Time;durP1;ratioP1;P1;durP2;ratioP2;P2;SDS_P1;SDS_P2;PMS_P1;PMS_P2;Temp;Humidity;BMP_temperature;BMP_pressure;BME280_temperature;BME280_humidity;BME280_pressure;Samples;Min_cycle;Max_cycle;Signal;HPM_P1;HPM_P2
2022/04/21 00:00:43;;;;;;;4.88;2.47;;;;;;;6.47;62.31;98781.94;8221590;28;20339;-73
2022/04/21 00:04:44;;;;;;;3.78;1.55;;;;;;;6.43;62.33;98770.72;8229570;28;20159;-72
2022/04/21 00:08:46;;;;;;;4.07;1.63;;;;;;;6.41;62.94;98781.91;8210146;28;20074;-73
2022/04/21 00:12:47;;;;;;;3.10;1.87;;;;;;;6.41;63.36;98785.34;8226283;28;20058;-73
2022/04/21 00:16:48;;;;;;;4.10;1.70;;;;;;;6.41;62.57;98779.31;8218892;28;20042;-73
2022/04/21 00:20:50;;;;;;;5.43;1.67;;;;;;;6.37;64.00;98778.47;8221988;28;20432;-72
2022/04/21 00:24:52;;;;;;;2.05;1.52;;;;;;;6.22;64.59;98781.00;8222884;28;20149;-72
2022/04/21 00:28:53;;;;;;;2.80;1.13;;;;;;;6.17;64.98;98781.00;8214400;28;20047;-72
2022/04/21 00:32:54;;;;;;;3.63;1.30;;;;;;;6.10;65.23;98770.63;8214708;28;20093;-72
2022/04/21 00:36:59;;;;;;;2.60;1.27;;;;;;;6.06;66.01;98769.78;8207760;28;20243;-72
2022/04/21 00:41:00;;;;;;;3.37;0.90;;;;;;;5.98;65.92;98768.91;8220604;28;20050;-72
2022/04/21 00:45:02;;;;;;;3.90;1.23;;;;;;;5.92;66.52;98774.84;8217303;28;20057;-72
2022/04/21 00:49:05;;;;;;;1.38;1.20;;;;;;;5.85;66.80;98773.09;8216554;28;20062;-72
2022/04/21 00:53:07;;;;;;;4.82;1.15;;;;;;;5.84;67.30;98768.78;8218347;28;20716;-73
2022/04/21 00:57:10;;;;;;;1.88;1.40;;;;;;;5.79;67.99;98760.19;8219661;28;20051;-73
2022/04/21 01:02:46;;;;;;;2.40;1.03;;;;;;;5.80;68.63;98753.31;8218175;28;20098;-73
2022/04/21 01:05:34;;;;;;;3.27;1.17;;;;;;;5.76;68.90;98748.16;8186546;28;20082;-73
2022/04/21 01:09:38;;;;;;;2.93;1.00;;;;;;;5.69;69.15;98750.69;8191599;28;20055;-73
2022/04/21 01:13:40;;;;;;;2.35;1.20;;;;;;;5.67;69.00;98750.69;8189318;28;20103;-73
2022/04/21 01:17:41;;;;;;;4.63;1.30;;;;;;;5.76;68.90;98747.31;8167932;29;20077;-73
2022/04/21 01:21:44;;;;;;;2.20;1.03;;;;;;;5.86;68.24;98749.06;8172838;28;20047;-73
2022/04/21 01:25:45;;;;;;;1.50;0.75;;;;;;;5.98;68.16;98746.56;8195716;28;20091;-73
2022/04/21 01:29:47;;;;;;;1.17;0.77;;;;;;;6.07;67.88;98740.56;8192234;28;20200;-71
2022/04/21 01:33:50;;;;;;;1.63;1.00;;;;;;;6.18;68.29;98732.88;8190034;28;20238;-71
2022/04/21 01:42:15;;;;;;;1.73;0.90;;;;;;;6.37;68.60;98732.06;8210806;28;20081;-73
2022/04/21 01:46:16;;;;;;;0.57;0.57;;;;;;;6.41;68.29;98728.63;8209825;28;20060;-72
2022/04/21 01:50:18;;;;;;;3.60;0.90;;;;;;;6.52;68.51;98728.63;8224195;28;20624;-72
2022/04/21 01:54:20;;;;;;;1.05;1.00;;;;;;;6.63;68.44;98735.50;8236611;28;20049;-72
2022/04/21 01:58:21;;;;;;;2.10;0.75;;;;;;;6.71;68.10;98737.25;8225276;28;20054;-72
2022/04/21 02:02:23;;;;;;;4.15;1.20;;;;;;;6.76;68.19;98733.81;8243060;28;20073;-72
2022/04/21 02:06:24;;;;;;;3.50;0.90;;;;;;;6.79;67.21;98727.78;8245316;28;20042;-72
2022/04/21 02:10:26;;;;;;;1.42;1.15;;;;;;;6.77;67.87;98727.78;8226350;28;20442;-72
2022/04/21 02:14:27;;;;;;;1.95;0.82;;;;;;;6.81;68.12;98719.16;8222316;28;20123;-74
2022/04/21 02:18:29;;;;;;;2.92;1.40;;;;;;;6.82;68.09;98717.44;8230923;28;20073;-73
2022/04/21 02:22:32;;;;;;;2.97;1.30;;;;;;;6.79;68.58;98712.28;8230155;28;20121;-74
2022/04/21 02:26:33;;;;;;;4.03;1.00;;;;;;;6.79;68.21;98722.63;8222216;28;20050;-73
2022/04/21 02:30:35;;;;;;;3.55;1.25;;;;;;;6.81;68.60;98715.72;8237577;28;20122;-73
2022/04/21 02:34:36;;;;;;;2.10;1.23;;;;;;;6.80;68.15;98717.47;8234386;28;20138;-73
2022/04/21 02:38:38;;;;;;;3.88;1.23;;;;;;;6.80;68.39;98712.28;8228517;28;20081;-73
2022/04/21 02:42:40;;;;;;;1.85;1.38;;;;;;;6.79;67.83;98708.00;8236627;28;20457;-73
2022/04/21 02:46:41;;;;;;;3.63;1.08;;;;;;;6.79;68.01;98705.41;8237184;28;20133;-73
2022/04/21 02:50:43;;;;;;;2.17;0.90;;;;;;;6.77;68.80;98701.13;8235878;28;20055;-73
2022/04/21 02:59:05;;;;;;;3.90;1.00;;;;;;;6.75;68.47;98700.28;8237766;28;20050;-73
2022/04/21 03:03:07;;;;;;;1.25;0.90;;;;;;;6.77;68.88;98704.56;8232507;28;20094;-73
2022/04/21 03:07:08;;;;;;;3.75;1.13;;;;;;;6.78;69.00;98695.97;8222886;28;20125;-73
2022/04/21 03:11:10;;;;;;;8.85;2.08;;;;;;;6.80;69.67;98698.53;8227706;28;20045;-73
2022/04/21 03:15:12;;;;;;;10.02;2.67;;;;;;;6.81;69.35;98690.78;8208718;28;20443;-73
2022/04/21 03:19:14;;;;;;;4.05;2.13;;;;;;;6.85;69.66;98696.84;8234186;28;20117;-73
2022/04/21 03:27:36;;;;;;;4.72;1.10;;;;;;;6.88;69.30;98694.25;8222892;28;20675;-73
2022/04/21 03:31:37;;;;;;;2.00;1.40;;;;;;;6.81;69.02;98700.25;8227691;28;20058;-73
2022/04/21 03:35:39;;;;;;;1.55;1.27;;;;;;;6.78;69.77;98697.69;8218233;28;20178;-72
2022/04/21 03:39:41;;;;;;;4.55;1.00;;;;;;;6.75;69.40;98697.69;8215052;28;20150;-73
2022/04/21 03:43:43;;;;;;;1.77;1.20;;;;;;;6.74;69.70;98688.22;8219730;28;20065;-72
2022/04/21 03:47:44;;;;;;;1.65;1.02;;;;;;;6.73;69.81;98683.94;8226912;28;20153;-73
2022/04/21 03:51:46;;;;;;;1.40;1.30;;;;;;;6.76;70.13;98689.94;8236294;28;20062;-73
2022/04/21 03:55:47;;;;;;;2.88;1.25;;;;;;;6.77;69.92;98685.63;8236459;28;20042;-73
2022/04/21 03:59:49;;;;;;;1.23;1.13;;;;;;;6.78;69.99;98687.34;8216872;28;20070;-73
2022/04/21 04:03:51;;;;;;;2.85;1.23;;;;;;;6.80;70.06;98680.47;8232236;28;20359;-73
2022/04/21 04:12:16;;;;;;;1.52;1.10;;;;;;;6.79;70.16;98689.94;8229230;28;19925;-73
2022/04/21 04:16:19;;;;;;;2.15;1.40;;;;;;;6.75;70.21;98688.22;8228586;28;20134;-73
2022/04/21 04:20:20;;;;;;;4.35;1.95;;;;;;;6.67;69.88;98689.97;8237191;28;20042;-72
2022/04/21 04:24:22;;;;;;;1.63;1.40;;;;;;;6.63;70.00;98683.91;8235353;28;20042;-73
2022/04/21 04:28:24;;;;;;;1.45;1.20;;;;;;;6.61;70.21;98684.78;8217836;28;20091;-73
2022/04/21 04:32:25;;;;;;;1.00;0.90;;;;;;;6.62;70.42;98689.94;8222740;28;20530;-73
2022/04/21 04:36:28;;;;;;;1.52;1.20;;;;;;;6.61;70.34;98680.47;8181713;28;20138;-73
2022/04/21 04:40:29;;;;;;;1.95;1.20;;;;;;;6.56;70.37;98684.78;8199577;28;20053;-73
2022/04/21 04:44:31;;;;;;;4.95;1.50;;;;;;;6.58;70.78;98682.22;8174794;29;20525;-73
2022/04/21 04:48:32;;;;;;;2.80;1.55;;;;;;;6.59;70.69;98676.19;8188152;28;20154;-73
2022/04/21 04:52:34;;;;;;;1.83;1.45;;;;;;;6.64;70.51;98683.09;8195231;28;20431;-73
2022/04/21 04:56:37;;;;;;;2.63;1.93;;;;;;;6.72;70.56;98687.38;8194342;28;20051;-73
2022/04/21 05:00:38;;;;;;;4.03;1.67;;;;;;;6.79;70.50;98691.66;8194691;28;20047;-73
2022/04/21 05:04:39;;;;;;;3.97;1.85;;;;;;;6.84;70.31;98692.53;8182090;28;20353;-73
2022/04/21 05:08:41;;;;;;;4.60;2.03;;;;;;;6.90;70.30;98688.22;8180140;28;20053;-73
2022/04/21 05:12:42;;;;;;;4.25;2.40;;;;;;;6.98;70.05;98683.03;8198147;28;20074;-73
2022/04/21 05:16:44;;;;;;;8.48;4.50;;;;;;;7.07;69.99;98684.75;8186464;28;20055;-74
2022/04/21 05:20:46;;;;;;;6.13;3.60;;;;;;;7.14;69.68;98679.56;8195929;28;20043;-74
2022/04/21 05:24:51;;;;;;;8.33;3.10;;;;;;;7.25;69.25;98677.81;8193607;28;20078;-73
2022/04/21 05:28:54;;;;;;;5.97;2.80;;;;;;;7.38;68.83;98683.81;8189641;28;20078;-73
2022/04/21 05:32:56;;;;;;;4.75;2.17;;;;;;;7.49;68.78;98681.19;8180195;28;20043;-74
2022/04/21 05:36:59;;;;;;;3.80;2.63;;;;;;;7.66;68.62;98683.72;8194695;28;20061;-74
2022/04/21 05:41:02;;;;;;;6.35;2.40;;;;;;;7.88;67.68;98680.16;8200934;28;20043;-75
2022/04/21 05:45:03;;;;;;;6.18;1.98;;;;;;;8.29;66.94;98679.94;8162184;28;20138;-75
2022/04/21 05:49:05;;;;;;;3.25;1.70;;;;;;;9.36;63.50;98679.88;8178896;28;20085;-74
2022/04/21 05:53:10;;;;;;;2.30;1.50;;;;;;;9.90;61.00;98674.88;8178384;28;20071;-74
2022/04/21 05:57:11;;;;;;;1.73;1.20;;;;;;;9.99;59.80;98672.16;8198274;28;20464;-75
2022/04/21 06:01:13;;;;;;;1.50;1.40;;;;;;;10.20;59.15;98680.50;8179084;28;20069;-75
2022/04/21 06:05:14;;;;;;;1.57;1.03;;;;;;;10.39;58.17;98676.78;8203376;28;20050;-74
2022/04/21 06:09:16;;;;;;;1.88;1.38;;;;;;;10.64;56.91;98666.91;8206376;28;20066;-74
2022/04/21 06:13:18;;;;;;;1.17;1.00;;;;;;;10.86;56.40;98657.88;8197329;28;20750;-73
2022/04/21 06:17:19;;;;;;;1.75;1.10;;;;;;;11.10;55.62;98659.16;8177277;28;20134;-73
2022/04/21 06:21:21;;;;;;;1.42;1.10;;;;;;;11.36;54.60;98661.28;8200892;28;20053;-74
2022/04/21 06:25:22;;;;;;;2.80;2.00;;;;;;;11.63;53.62;98661.59;8204229;28;20439;-74
2022/04/21 06:29:24;;;;;;;2.55;1.63;;;;;;;11.80;52.95;98662.16;8203473;28;20051;-74
2022/04/21 06:33:25;;;;;;;1.08;0.98;;;;;;;11.93;51.78;98653.19;8183159;28;20133;-75
2022/04/21 06:37:27;;;;;;;5.07;1.20;;;;;;;12.22;52.21;98656.91;8200958;28;20452;-74
2022/04/21 06:41:29;;;;;;;2.00;1.50;;;;;;;12.24;51.05;98653.38;8183387;28;20094;-74
2022/04/21 06:49:50;;;;;;;1.52;1.08;;;;;;;12.51;50.49;98651.00;8194275;28;20122;-73
2022/04/21 06:53:51;;;;;;;2.28;1.17;;;;;;;12.59;50.22;98643.88;8207025;28;20067;-73
2022/04/21 06:57:54;;;;;;;1.93;0.97;;;;;;;12.78;49.90;98645.13;8204192;28;20063;-73
2022/04/21 07:01:55;;;;;;;1.52;1.40;;;;;;;13.05;48.92;98645.31;8198826;28;20079;-73
2022/04/21 07:05:57;;;;;;;1.90;1.40;;;;;;;13.42;47.84;98626.94;8204167;28;20579;-73
2022/04/21 07:10:00;;;;;;;2.03;1.30;;;;;;;13.53;47.26;98633.56;8199726;28;20079;-73
2022/04/21 07:14:01;;;;;;;1.30;1.20;;;;;;;13.83;46.71;98638.81;8201057;28;20811;-73
2022/04/21 07:18:03;;;;;;;2.43;1.50;;;;;;;14.06;46.04;98638.97;8183707;28;20082;-74
2022/04/21 07:22:05;;;;;;;2.22;1.50;;;;;;;14.17;45.47;98636.84;8203245;28;20047;-74
2022/04/21 07:26:06;;;;;;;2.28;1.30;;;;;;;14.22;45.22;98639.34;8204938;28;20389;-73
2022/04/21 07:30:08;;;;;;;1.70;1.40;;;;;;;14.42;44.67;98644.78;8182201;28;20065;-73
2022/04/21 07:34:10;;;;;;;2.50;1.40;;;;;;;14.63;44.17;98652.88;8202511;28;20074;-74
2022/04/21 07:38:12;;;;;;;2.60;1.10;;;;;;;14.73;43.81;98649.06;8204327;28;20046;-74
2022/04/21 07:42:14;;;;;;;2.85;1.48;;;;;;;14.80;43.04;98635.72;8209106;28;20043;-74
2022/04/21 07:46:16;;;;;;;2.25;1.75;;;;;;;14.93;43.42;98648.41;8197307;28;20129;-74
2022/04/21 07:50:17;;;;;;;4.00;1.97;;;;;;;15.16;42.91;98647.59;8200456;28;20077;-74
2022/04/21 07:54:39;;;;;;;1.95;1.38;;;;;;;15.47;42.96;98637.75;8201310;28;20374;-74
2022/04/21 07:58:40;;;;;;;6.60;1.43;;;;;;;15.73;41.96;98651.69;8200770;28;20652;-74
2022/04/21 08:02:43;;;;;;;2.47;1.43;;;;;;;15.74;40.89;98649.00;8183221;28;20126;-73
2022/04/21 08:06:44;;;;;;;2.95;1.40;;;;;;;15.89;41.15;98652.81;8203994;28;20043;-74
2022/04/21 08:10:46;;;;;;;6.45;2.05;;;;;;;16.11;40.14;98647.59;8205913;28;20050;-73
2022/04/21 08:14:48;;;;;;;3.17;1.67;;;;;;;16.08;40.92;98639.88;8188408;28;20440;-74
2022/04/21 08:18:52;;;;;;;3.92;1.38;;;;;;;16.24;40.36;98657.56;8176099;28;20181;-73
2022/04/21 08:22:54;;;;;;;2.40;1.80;;;;;;;16.47;39.84;98655.78;8159341;28;20102;-73
2022/04/21 08:35:36;;;;;;;1.40;0.98;;;;;;;16.68;38.56;98651.47;8191814;28;20062;-74
2022/04/21 08:39:38;;;;;;;1.90;1.23;;;;;;;16.62;38.70;98655.16;8190552;28;20078;-74
2022/04/21 08:43:40;;;;;;;1.17;0.80;;;;;;;16.72;38.65;98650.44;8195071;28;20077;-74
2022/04/21 08:47:46;;;;;;;;;;;;;;;16.78;38.56;98642.31;8177303;28;20057;-73
2022/04/21 08:51:47;;;;;;;2.50;0.80;;;;;;;16.96;39.46;98635.47;8188948;28;20029;-73
2022/04/21 08:55:49;;;;;;;0.73;0.70;;;;;;;17.29;38.92;98628.75;8172901;28;20047;-73
2022/04/21 08:59:52;;;;;;;1.40;0.70;;;;;;;17.44;38.55;98627.25;8179705;28;20515;-73
2022/04/21 09:03:53;;;;;;;0.85;0.70;;;;;;;17.70;38.27;98631.34;8165301;28;20491;-73
2022/04/21 09:07:59;;;;;;;1.48;0.60;;;;;;;17.86;38.22;98623.63;8192276;28;20083;-73
2022/04/21 09:12:20;;;;;;;0.60;0.60;;;;;;;18.04;37.88;98622.75;8183046;28;20051;-74
2022/04/21 09:16:33;;;;;;;1.02;0.60;;;;;;;17.98;37.25;98618.66;8179545;28;20079;-74
2022/04/21 09:20:39;;;;;;;1.13;0.65;;;;;;;18.08;38.53;98616.44;8179495;28;20043;-73
2022/04/21 09:24:41;;;;;;;0.60;0.60;;;;;;;18.18;37.51;98612.44;8187464;28;20054;-73
2022/04/21 09:28:52;;;;;;;1.13;0.50;;;;;;;18.30;36.61;98609.22;8188482;28;20439;-73
2022/04/21 09:32:55;;;;;;;0.85;0.65;;;;;;;18.27;37.11;98603.25;8184612;28;20145;-74
2022/04/21 09:36:58;;;;;;;0.90;0.60;;;;;;;18.20;36.88;98592.22;8186465;28;20126;-73
2022/04/21 09:41:10;;;;;;;3.47;1.00;;;;;;;18.38;36.94;98599.19;8184575;28;20079;-73
2022/04/21 09:49:44;;;;;;;1.38;0.60;;;;;;;18.40;37.81;98581.56;8188536;28;20047;-73
2022/04/21 09:53:59;;;;;;;2.35;0.60;;;;;;;18.64;36.77;98578.69;8197309;28;20043;-73
2022/04/21 09:58:06;;;;;;;0.60;0.47;;;;;;;18.85;36.62;98575.00;8185890;28;20047;-73
2022/04/21 10:02:08;;;;;;;2.72;1.05;;;;;;;18.90;35.37;98574.75;8200181;28;20511;-74
2022/04/21 10:06:10;;;;;;;3.65;1.13;;;;;;;18.89;36.45;98571.25;8191411;28;20047;-74
2022/04/21 10:10:11;;;;;;;3.92;0.80;;;;;;;19.02;36.05;98566.19;8196062;28;20081;-73
2022/04/21 10:14:15;;;;;;;0.43;0.43;;;;;;;19.09;36.01;98564.97;8202144;28;20043;-73
2022/04/21 10:18:20;;;;;;;3.22;0.50;;;;;;;19.25;36.35;98557.97;8197746;28;20050;-74
2022/04/21 10:22:22;;;;;;;3.33;0.85;;;;;;;19.22;35.61;98552.03;8202190;28;20089;-73
2022/04/21 10:26:37;;;;;;;9.57;1.50;;;;;;;19.26;36.22;98553.56;8203280;28;20504;-73
2022/04/21 10:30:40;;;;;;;8.98;0.82;;;;;;;19.42;35.60;98554.44;8182572;28;20059;-74
2022/04/21 10:34:46;;;;;;;3.67;0.70;;;;;;;19.43;35.72;98545.59;8191252;28;20059;-74
2022/04/21 10:39:25;;;;;;;1.50;0.70;;;;;;;19.38;35.53;98534.44;8187506;28;20362;-74
2022/04/21 10:43:52;;;;;;;2.03;0.60;;;;;;;19.55;35.20;98529.16;8192990;28;20035;-74
2022/04/21 10:48:13;;;;;;;9.70;1.35;;;;;;;19.65;35.67;98526.03;8167452;28;20462;-74
2022/04/21 11:01:07;;;;;;;3.70;2.03;;;;;;;19.51;35.09;98509.16;8188752;28;20055;-73
2022/04/21 11:05:21;;;;;;;4.65;0.88;;;;;;;19.77;35.79;98496.38;8197079;28;20454;-74
2022/04/21 11:09:40;;;;;;;2.58;0.70;;;;;;;19.94;34.63;98491.00;8193072;28;20070;-74
2022/04/21 11:14:06;;;;;;;4.40;0.80;;;;;;;19.99;35.16;98488.09;8192935;28;20523;-74
2022/04/21 11:18:12;;;;;;;5.25;1.52;;;;;;;20.13;35.21;98473.22;8190672;28;20154;-73
2022/04/21 11:22:41;;;;;;;2.13;0.70;;;;;;;20.18;33.86;98480.84;8184682;28;20967;-74
2022/04/21 11:26:43;;;;;;;2.63;0.50;;;;;;;20.14;34.48;98484.59;8194055;28;20353;-73
2022/04/21 11:30:45;;;;;;;9.75;1.10;;;;;;;20.21;34.20;98473.59;8173913;28;20745;-74
2022/04/21 11:35:01;;;;;;;9.23;1.00;;;;;;;20.05;33.01;98474.56;8196018;28;20079;-74
2022/04/21 11:39:13;;;;;;;6.35;1.20;;;;;;;19.97;32.79;98485.56;8179598;28;20046;-74
2022/04/21 11:43:16;;;;;;;;;;;;;;;19.85;33.29;98473.06;8183072;28;20430;-74
2022/04/21 11:47:21;;;;;;;3.83;0.50;;;;;;;20.03;33.18;98465.91;8193987;28;19938;-74
2022/04/21 11:51:24;;;;;;;11.35;0.70;;;;;;;20.02;33.19;98466.84;8203266;28;20074;-74
2022/04/21 11:55:28;;;;;;;3.15;0.60;;;;;;;20.05;33.10;98456.97;8190694;28;20704;-74
2022/04/21 11:59:36;;;;;;;4.82;0.70;;;;;;;20.01;32.16;98455.47;8175132;28;20147;-75
2022/04/21 12:08:17;;;;;;;4.05;0.50;;;;;;;20.10;33.28;98441.72;8186831;28;20580;-74
2022/04/21 12:12:21;;;;;;;15.60;1.08;;;;;;;20.26;32.66;98430.28;8178032;28;20086;-74
2022/04/21 12:16:43;;;;;;;6.60;0.60;;;;;;;20.32;32.18;98422.03;8184680;28;20737;-74
2022/04/21 12:20:54;;;;;;;3.33;0.40;;;;;;;20.25;32.70;98425.97;8189285;28;20456;-74
2022/04/21 12:24:56;;;;;;;0.47;0.40;;;;;;;20.45;32.38;98429.13;8189372;28;20071;-74
2022/04/21 12:28:58;;;;;;;5.45;0.45;;;;;;;20.41;32.09;98427.63;8195499;28;20367;-74
2022/04/21 12:32:59;;;;;;;4.18;0.70;;;;;;;20.37;32.01;98417.34;8186871;28;20043;-74
2022/04/21 12:37:02;;;;;;;3.97;0.32;;;;;;;20.59;32.59;98409.84;8170597;29;20066;-74
2022/04/21 12:41:04;;;;;;;5.32;0.40;;;;;;;20.75;32.83;98415.88;8185577;28;20043;-74
2022/04/21 12:45:08;;;;;;;0.38;0.30;;;;;;;20.90;32.58;98397.41;8185865;29;20062;-74
2022/04/21 12:49:09;;;;;;;11.05;0.50;;;;;;;20.93;31.57;98403.34;8185350;28;20105;-74
2022/04/21 12:53:27;;;;;;;1.70;0.40;;;;;;;21.08;32.07;98404.19;8174553;28;20471;-74
2022/04/21 12:57:28;;;;;;;4.35;0.43;;;;;;;20.91;31.66;98394.69;8187694;28;20050;-74
2022/04/21 13:01:30;;;;;;;3.60;0.50;;;;;;;20.95;32.17;98384.78;8185459;28;20063;-72
2022/04/21 13:05:33;;;;;;;0.60;0.30;;;;;;;20.98;32.25;98393.34;8188997;28;20836;-74
2022/04/21 13:09:35;;;;;;;1.33;0.40;;;;;;;21.06;32.55;98385.81;8188257;28;20061;-74
2022/04/21 13:13:37;;;;;;;1.27;0.38;;;;;;;21.25;31.54;98380.22;8193368;28;20050;-74
2022/04/21 13:17:40;;;;;;;1.02;0.90;;;;;;;20.99;30.94;98375.72;8184756;28;20082;-74
2022/04/21 13:21:55;;;;;;;2.63;0.60;;;;;;;20.72;32.06;98375.66;8185817;28;20696;-75
2022/04/21 13:25:58;;;;;;;1.88;0.40;;;;;;;20.65;32.14;98367.28;8170063;28;20702;-74
2022/04/21 13:30:20;;;;;;;1.17;0.63;;;;;;;20.88;33.03;98365.84;8184443;28;20138;-75
2022/04/21 13:34:21;;;;;;;2.80;0.40;;;;;;;21.08;32.12;98376.00;8190359;28;20050;-74
2022/04/21 13:38:23;;;;;;;5.22;1.15;;;;;;;20.89;31.50;98370.19;8193048;28;20047;-75
2022/04/21 13:42:25;;;;;;;0.73;0.70;;;;;;;20.95;32.41;98363.66;8191006;28;20069;-74
2022/04/21 13:46:27;;;;;;;2.63;1.20;;;;;;;20.72;31.13;98351.91;8189904;28;20047;-75
2022/04/21 13:50:28;;;;;;;3.28;0.70;;;;;;;20.51;31.86;98354.94;8199207;28;20094;-75
2022/04/21 13:54:30;;;;;;;2.67;0.73;;;;;;;20.13;32.19;98361.66;8194643;28;20049;-75
2022/04/21 13:58:32;;;;;;;;;;;;;;;19.84;33.59;98350.19;8192932;28;20681;-75
2022/04/21 14:02:34;;;;;;;0.68;0.40;;;;;;;19.77;33.55;98359.41;8187699;28;20037;-75
2022/04/21 14:06:36;;;;;;;2.70;0.40;;;;;;;19.86;34.06;98354.44;8175982;28;20411;-74
2022/04/21 14:10:38;;;;;;;0.77;0.63;;;;;;;20.13;33.99;98362.50;8191218;28;20372;-75
2022/04/21 14:14:39;;;;;;;2.00;0.60;;;;;;;20.14;33.21;98337.84;8194860;28;20098;-75
2022/04/21 14:18:40;;;;;;;1.05;0.40;;;;;;;20.30;32.88;98326.38;8189538;28;20082;-75
2022/04/21 14:22:42;;;;;;;2.72;0.70;;;;;;;20.50;33.59;98321.59;8175930;28;20431;-75
2022/04/21 14:26:44;;;;;;;2.47;0.50;;;;;;;20.46;33.17;98324.50;8174298;28;20054;-75
2022/04/21 14:30:45;;;;;;;2.25;0.70;;;;;;;20.51;33.06;98325.09;8191310;28;20150;-75
2022/04/21 14:34:47;;;;;;;1.75;0.47;;;;;;;20.32;32.38;98332.41;8187682;28;20062;-75
2022/04/21 14:47:28;;;;;;;1.98;0.80;;;;;;;20.14;33.56;98318.53;8196850;28;20102;-74
2022/04/21 14:51:31;;;;;;;5.90;0.40;;;;;;;20.33;33.53;98308.56;8201551;28;20050;-75
2022/04/21 14:55:33;;;;;;;1.25;0.45;;;;;;;20.33;32.67;98313.00;8174365;28;20063;-75
2022/04/21 14:59:34;;;;;;;3.05;0.55;;;;;;;20.26;33.21;98312.50;8196004;28;20050;-74
2022/04/21 15:03:37;;;;;;;2.22;0.82;;;;;;;20.27;33.34;98311.56;8198521;28;20142;-74
2022/04/21 15:07:38;;;;;;;2.03;1.30;;;;;;;20.08;33.11;98310.97;8195044;28;20055;-74
2022/04/21 15:11:41;;;;;;;1.42;0.85;;;;;;;20.11;33.72;98316.94;8190604;28;20694;-74
2022/04/21 15:15:42;;;;;;;2.78;0.70;;;;;;;20.32;33.79;98314.78;8175102;28;20519;-75
2022/04/21 15:19:46;;;;;;;5.18;0.73;;;;;;;20.17;33.65;98316.56;8206901;28;20512;-75
2022/04/21 15:23:48;;;;;;;1.02;0.75;;;;;;;20.07;33.05;98312.78;8197700;28;20043;-75
2022/04/21 15:27:51;;;;;;;4.25;1.13;;;;;;;19.74;33.56;98318.25;8184725;28;20158;-74
2022/04/21 15:31:52;;;;;;;1.70;0.98;;;;;;;19.40;34.36;98324.63;8190257;28;20051;-74
2022/04/21 15:35:54;;;;;;;2.85;0.80;;;;;;;19.06;35.39;98319.56;8199445;28;20162;-74
2022/04/21 15:39:55;;;;;;;4.45;0.65;;;;;;;18.95;35.43;98317.53;8203868;28;20081;-74
2022/04/21 15:43:57;;;;;;;2.45;0.73;;;;;;;18.82;35.74;98321.75;8199960;28;20051;-74
2022/04/21 15:48:00;;;;;;;2.05;1.48;;;;;;;18.70;36.04;98318.03;8202746;28;20402;-73
2022/04/21 15:52:03;;;;;;;3.58;1.45;;;;;;;18.46;36.33;98314.91;8198823;28;20055;-73
2022/04/21 16:00:25;;;;;;;1.75;1.15;;;;;;;18.12;36.82;98315.84;8190825;28;20070;-74
2022/04/21 16:04:26;;;;;;;1.45;0.80;;;;;;;17.87;37.17;98313.63;8204982;28;20074;-74
2022/04/21 16:08:28;;;;;;;2.83;0.70;;;;;;;17.67;36.94;98321.66;8187866;28;20053;-74
2022/04/21 16:12:29;;;;;;;3.35;0.70;;;;;;;17.53;37.39;98314.44;8188291;28;20086;-74
2022/04/21 16:16:31;;;;;;;0.93;0.50;;;;;;;17.68;37.28;98318.13;8179018;28;20117;-73
2022/04/21 16:20:32;;;;;;;1.00;0.60;;;;;;;17.92;37.51;98314.25;8198795;28;20447;-73
2022/04/21 16:24:34;;;;;;;2.17;0.60;;;;;;;18.14;36.88;98319.25;8193269;28;20359;-73
2022/04/21 16:28:36;;;;;;;1.95;0.80;;;;;;;18.05;36.85;98312.69;8185582;28;20077;-74
2022/04/21 16:32:38;;;;;;;1.52;0.73;;;;;;;17.93;36.66;98321.19;8193565;28;20446;-74
2022/04/21 16:36:39;;;;;;;1.57;0.67;;;;;;;17.86;37.31;98322.44;8224046;28;20568;-74
2022/04/21 16:40:41;;;;;;;2.70;0.50;;;;;;;17.67;37.22;98324.28;8225221;28;20039;-74
2022/04/21 16:44:42;;;;;;;5.40;0.50;;;;;;;17.49;37.31;98326.88;8233988;28;20057;-73
2022/04/21 16:48:44;;;;;;;1.10;0.57;;;;;;;17.37;37.69;98324.00;8215587;28;20054;-73
2022/04/21 16:52:46;;;;;;;1.38;0.52;;;;;;;17.20;37.97;98322.19;8224582;28;20070;-74
2022/04/21 16:56:47;;;;;;;0.95;0.40;;;;;;;17.02;38.72;98323.06;8227139;28;20105;-73
2022/04/21 17:05:08;;;;;;;0.60;0.50;;;;;;;16.67;39.23;98319.47;8228095;28;20308;-73
2022/04/21 17:09:10;;;;;;;3.17;1.10;;;;;;;16.64;39.27;98325.69;8229415;28;20091;-73
2022/04/21 17:13:11;;;;;;;1.10;0.73;;;;;;;16.54;39.17;98327.06;8220727;28;20102;-73
2022/04/21 17:17:20;;;;;;;4.78;0.80;;;;;;;16.38;39.70;98326.88;8225914;28;20482;-73
2022/04/21 17:21:22;;;;;;;5.90;0.70;;;;;;;16.27;40.10;98329.97;8235086;28;20054;-73
2022/04/21 17:25:23;;;;;;;3.70;0.70;;;;;;;16.13;40.03;98329.72;8229139;28;20407;-73
2022/04/21 17:29:25;;;;;;;4.60;0.93;;;;;;;16.02;40.22;98327.59;8222137;28;20081;-73
2022/04/21 17:33:27;;;;;;;4.35;0.88;;;;;;;15.90;40.37;98332.50;8216478;28;20462;-73
2022/04/21 17:37:28;;;;;;;4.75;1.05;;;;;;;15.73;41.12;98329.75;8219034;28;20078;-73
2022/04/21 17:41:30;;;;;;;1.43;0.57;;;;;;;15.57;41.43;98327.75;8225397;28;20053;-73
2022/04/21 17:45:31;;;;;;;2.63;0.63;;;;;;;15.45;42.20;98328.25;8223163;28;20054;-74
2022/04/21 17:49:34;;;;;;;2.27;0.80;;;;;;;15.34;42.00;98326.06;8224784;28;20138;-73
2022/04/21 17:53:36;;;;;;;4.15;1.10;;;;;;;15.27;42.34;98323.78;8205426;28;20523;-73
2022/04/21 17:57:37;;;;;;;2.88;0.75;;;;;;;15.12;42.34;98320.00;8197724;28;20054;-73
2022/04/21 18:01:39;;;;;;;0.90;0.53;;;;;;;15.01;42.76;98319.56;8218466;28;20895;-73
2022/04/21 18:05:40;;;;;;;0.82;0.55;;;;;;;14.91;42.96;98323.47;8220830;28;20047;-73
2022/04/21 18:09:42;;;;;;;4.05;0.57;;;;;;;14.84;43.14;98327.22;8222812;28;20038;-73
2022/04/21 18:13:45;;;;;;;2.40;0.70;;;;;;;14.79;43.69;98314.34;8221313;28;20439;-73
2022/04/21 18:17:47;;;;;;;3.75;0.60;;;;;;;14.72;44.16;98318.97;8202679;28;20095;-74
2022/04/21 18:21:49;;;;;;;5.63;0.50;;;;;;;14.56;44.24;98320.44;8220350;28;20094;-74
2022/04/21 18:25:50;;;;;;;2.33;0.60;;;;;;;14.48;44.42;98315.50;8228841;28;20038;-73
2022/04/21 18:29:52;;;;;;;2.60;1.17;;;;;;;14.37;44.70;98322.88;8224267;28;20058;-73
2022/04/21 18:33:53;;;;;;;0.70;0.70;;;;;;;14.31;44.73;98319.59;8227883;28;20317;-73
2022/04/21 18:37:55;;;;;;;1.83;0.40;;;;;;;14.20;45.08;98306.97;8226927;28;20093;-72
2022/04/21 18:41:56;;;;;;;0.68;0.55;;;;;;;14.08;45.42;98312.63;8209530;28;20065;-72
2022/04/21 18:45:59;;;;;;;2.20;0.50;;;;;;;14.01;46.17;98304.16;8224648;28;20046;-72
2022/04/21 18:50:00;;;;;;;2.78;0.52;;;;;;;13.96;46.22;98306.06;8224267;28;20078;-73
2022/04/21 18:54:03;;;;;;;1.10;0.40;;;;;;;13.93;46.06;98300.09;8229401;28;20149;-74
2022/04/21 19:02:24;;;;;;;2.58;0.40;;;;;;;13.68;46.94;98307.94;8224184;28;19972;-72
2022/04/21 19:06:26;;;;;;;1.17;0.47;;;;;;;13.64;47.40;98301.09;8226155;28;20046;-72
2022/04/21 19:10:29;;;;;;;2.10;0.40;;;;;;;13.54;47.24;98298.81;8233353;28;20413;-73
2022/04/21 19:14:31;;;;;;;0.40;0.40;;;;;;;13.49;47.41;98300.75;8210492;28;20045;-73
2022/04/21 19:18:33;;;;;;;1.07;0.37;;;;;;;13.45;47.51;98299.13;8220823;28;20056;-72
2022/04/21 19:22:35;;;;;;;0.88;0.40;;;;;;;13.29;48.27;98293.59;8210726;28;20057;-72
2022/04/21 19:26:39;;;;;;;0.73;0.50;;;;;;;13.19;48.36;98296.53;8226050;28;20444;-73
2022/04/21 19:30:42;;;;;;;0.75;0.50;;;;;;;13.02;49.58;98297.91;8217130;28;20060;-73
2022/04/21 19:34:45;;;;;;;3.03;0.70;;;;;;;12.95;49.39;98296.41;8203436;28;20085;-72
2022/04/21 19:38:46;;;;;;;1.15;0.50;;;;;;;12.87;50.37;98287.94;8191813;28;20451;-73
2022/04/21 19:42:48;;;;;;;3.60;0.80;;;;;;;12.86;50.26;98286.25;8184813;28;20054;-73
2022/04/21 19:46:49;;;;;;;2.35;0.60;;;;;;;12.80;49.81;98280.38;8151321;28;20788;-73
2022/04/21 19:50:50;;;;;;;0.93;0.88;;;;;;;12.78;50.61;98280.44;8185900;28;20693;-72
2022/04/21 19:54:52;;;;;;;0.75;0.70;;;;;;;12.72;50.70;98280.59;8187180;28;20043;-73
2022/04/21 19:58:56;;;;;;;2.28;0.70;;;;;;;12.64;50.85;98275.66;8189399;28;20130;-73
2022/04/21 20:02:57;;;;;;;0.50;0.50;;;;;;;12.63;50.88;98280.91;8172369;28;20116;-71
2022/04/21 20:11:21;;;;;;;0.60;0.52;;;;;;;12.51;51.49;98265.66;8184955;28;20074;-73
2022/04/21 20:15:22;;;;;;;;;;;;;;;12.42;52.58;98261.59;8181486;28;20051;-74
2022/04/21 20:23:44;;;;;;;0.60;0.60;;;;;;;12.16;52.69;98264.94;8183400;28;20066;-73
2022/04/21 20:27:46;;;;;;;1.63;0.90;;;;;;;12.10;53.41;98252.13;8182834;28;20728;-73